createdAt,value
2022-10-18T00:01:18.945Z,10.97
2022-10-18T00:03:47.717Z,10.92
2022-10-18T00:06:18.280Z,10.83
2022-10-18T00:08:47.274Z,10.92
2022-10-18T00:11:16.306Z,10.91
2022-10-18T00:13:45.078Z,10.86
2022-10-18T00:16:15.303Z,10.46
2022-10-18T00:18:44.300Z,10.85
2022-10-18T00:21:16.129Z,10.89
2022-10-18T00:23:46.770Z,10.83
2022-10-18T00:26:17.351Z,10.82
2022-10-18T00:28:46.966Z,10.94
2022-10-18T00:31:16.923Z,10.85
2022-10-18T00:33:46.284Z,10.69
2022-10-18T00:36:15.802Z,10.77
2022-10-18T00:38:46.044Z,10.88
2022-10-18T00:41:18.097Z,10.84
2022-10-18T00:43:58.335Z,10.67
2022-10-18T00:46:28.448Z,10.66
2022-10-18T00:48:57.791Z,10.76
2022-10-18T00:51:29.028Z,10.75
2022-10-18T00:53:59.089Z,10.74
2022-10-18T00:56:28.070Z,10.72
2022-10-18T00:58:56.921Z,10.63
2022-10-18T01:01:28.394Z,10.65
2022-10-18T01:03:58.787Z,10.58
2022-10-18T01:06:28.485Z,10.64
2022-10-18T01:09:10.763Z,9.88
2022-10-18T01:12:08.596Z,10.50
2022-10-18T01:14:45.519Z,10.55
2022-10-18T01:17:18.570Z,10.58
2022-10-18T01:20:20.015Z,10.56
2022-10-18T01:22:52.310Z,10.47
2022-10-18T01:25:34.280Z,10.50
2022-10-18T01:28:13.744Z,10.38
2022-10-18T01:30:51.578Z,10.41
2022-10-18T01:33:34.106Z,10.30
2022-10-18T01:36:10.797Z,10.24
2022-10-18T01:38:40.033Z,10.19
2022-10-18T01:41:13.237Z,10.24
2022-10-18T01:43:45.640Z,10.22
2022-10-18T01:46:16.171Z,9.69
2022-10-18T01:48:44.957Z,10.21
2022-10-18T01:51:13.488Z,10.18
2022-10-18T01:53:42.280Z,10.28
2022-10-18T01:56:33.702Z,10.23
2022-10-18T01:59:09.922Z,10.12
2022-10-18T02:01:45.518Z,10.13
2022-10-18T02:04:24.271Z,10.17
2022-10-18T02:06:58.037Z,10.22
2022-10-18T02:09:31.605Z,10.17
2022-10-18T02:12:00.766Z,10.15
2022-10-18T02:14:34.255Z,9.99
2022-10-18T02:17:08.813Z,9.92
2022-10-18T02:19:40.437Z,10.08
2022-10-18T02:22:10.169Z,9.93
2022-10-18T02:24:43.494Z,10.08
2022-10-18T02:27:13.113Z,9.86
2022-10-18T02:29:42.369Z,10.02
2022-10-18T02:32:16.752Z,10.02
2022-10-18T02:34:49.413Z,9.98
2022-10-18T02:37:19.232Z,9.97
2022-10-18T02:39:49.785Z,9.95
2022-10-18T02:42:19.158Z,9.94
2022-10-18T02:44:47.756Z,10.03
2022-10-18T02:47:18.168Z,10.03
2022-10-18T02:49:47.412Z,10.00
2022-10-18T02:52:15.947Z,9.95
2022-10-18T02:54:44.613Z,9.78
2022-10-18T02:57:13.256Z,9.99
2022-10-18T02:59:41.572Z,9.90
2022-10-18T03:02:10.219Z,9.98
2022-10-18T03:04:40.124Z,9.90
2022-10-18T03:07:08.832Z,9.90
2022-10-18T03:09:37.462Z,9.88
2022-10-18T03:12:06.609Z,9.81
2022-10-18T03:14:35.634Z,9.87
2022-10-18T03:17:04.405Z,9.80
2022-10-18T03:19:32.619Z,9.79
2022-10-18T03:22:02.663Z,9.71
2022-10-18T03:24:31.615Z,9.63
2022-10-18T03:27:00.308Z,9.81
2022-10-18T03:29:28.734Z,9.81
2022-10-18T03:31:57.505Z,9.19
2022-10-18T03:34:26.605Z,9.56
2022-10-18T03:37:00.963Z,9.79
2022-10-18T03:39:33.547Z,9.74
2022-10-18T03:42:02.412Z,9.72
2022-10-18T03:44:30.945Z,9.70
2022-10-18T03:46:59.930Z,9.72
2022-10-18T03:49:28.882Z,9.71
2022-10-18T03:51:57.096Z,9.48
2022-10-18T03:54:26.004Z,9.52
2022-10-18T03:56:56.060Z,9.57
2022-10-18T03:59:24.732Z,8.95
2022-10-18T04:01:53.717Z,9.34
2022-10-18T04:04:22.887Z,9.59
2022-10-18T04:06:51.666Z,8.42
2022-10-18T04:09:20.167Z,9.62
2022-10-18T04:11:51.598Z,9.60
2022-10-18T04:14:22.466Z,9.55
2022-10-18T04:16:50.938Z,9.48
2022-10-18T04:19:19.757Z,9.37
2022-10-18T04:21:48.396Z,9.34
2022-10-18T04:24:18.615Z,9.36
2022-10-18T04:26:47.407Z,9.24
2022-10-18T04:29:16.173Z,9.35
2022-10-18T04:31:46.047Z,8.82
2022-10-18T04:34:14.398Z,9.27
2022-10-18T04:36:42.743Z,9.34
2022-10-18T04:39:11.606Z,9.43
2022-10-18T04:41:39.903Z,9.36
2022-10-18T04:44:10.397Z,9.35
2022-10-18T04:46:38.971Z,9.43
2022-10-18T04:49:08.857Z,9.45
2022-10-18T04:51:37.223Z,9.46
2022-10-18T04:54:05.975Z,9.41
2022-10-18T04:56:34.332Z,9.49
2022-10-18T04:59:02.721Z,9.49
2022-10-18T05:01:32.399Z,9.40
2022-10-18T05:04:01.117Z,9.32
2022-10-18T05:06:32.337Z,9.33
2022-10-18T05:09:00.579Z,9.19
2022-10-18T05:11:28.936Z,8.93
2022-10-18T05:13:58.001Z,9.46
2022-10-18T05:16:28.640Z,9.49
2022-10-18T05:18:57.373Z,9.48
2022-10-18T05:21:25.615Z,9.41
2022-10-18T05:23:59.982Z,9.43
2022-10-18T05:26:29.241Z,9.23
2022-10-18T05:28:59.331Z,9.27
2022-10-18T05:31:29.164Z,9.31
2022-10-18T05:33:59.802Z,9.28
2022-10-18T05:36:28.687Z,9.18
2022-10-18T05:39:01.016Z,9.26
2022-10-18T05:41:33.076Z,9.28
2022-10-18T05:44:05.900Z,9.44
2022-10-18T05:46:35.119Z,9.44
2022-10-18T05:49:03.734Z,9.56
2022-10-18T05:51:32.968Z,9.53
2022-10-18T05:54:03.044Z,9.73
2022-10-18T05:56:31.410Z,9.81
2022-10-18T05:58:59.886Z,9.85
2022-10-18T06:01:28.662Z,9.90
2022-10-18T06:03:58.028Z,9.47
2022-10-18T06:06:27.142Z,9.82
2022-10-18T06:08:55.524Z,10.03
2022-10-18T06:11:25.237Z,9.93
2022-10-18T06:13:53.728Z,10.04
2022-10-18T06:16:26.267Z,10.15
2022-10-18T06:18:57.862Z,10.08
2022-10-18T06:21:26.949Z,10.27
2022-10-18T06:23:57.296Z,10.30
2022-10-18T06:26:28.110Z,10.31
2022-10-18T06:28:56.322Z,10.37
2022-10-18T06:31:25.354Z,10.54
2022-10-18T06:33:54.053Z,10.64
2022-10-18T06:36:23.332Z,10.74
2022-10-18T06:38:52.313Z,10.74
2022-10-18T06:41:22.116Z,10.88
2022-10-18T06:43:53.448Z,10.91
2022-10-18T06:46:22.093Z,10.66
2022-10-18T06:48:50.638Z,11.10
2022-10-18T06:51:20.277Z,11.29
2022-10-18T06:54:05.922Z,11.23
2022-10-18T06:56:37.941Z,11.51
2022-10-18T06:59:08.018Z,11.63
2022-10-18T07:01:37.384Z,11.82
2022-10-18T07:04:06.566Z,11.88
2022-10-18T07:06:35.344Z,11.97
2022-10-18T07:09:04.443Z,12.11
2022-10-18T07:11:33.223Z,12.20
2022-10-18T07:14:05.079Z,12.34
2022-10-18T07:16:36.468Z,12.50
2022-10-18T07:19:05.438Z,12.71
2022-10-18T07:21:34.192Z,12.85
2022-10-18T07:24:03.185Z,12.96
2022-10-18T07:26:33.349Z,13.09
2022-10-18T07:29:06.421Z,13.00
2022-10-18T07:31:38.528Z,13.05
2022-10-18T07:34:07.871Z,13.32
2022-10-18T07:36:36.533Z,13.35
2022-10-18T07:39:05.520Z,13.46
2022-10-18T07:41:34.585Z,13.66
2022-10-18T07:44:03.878Z,13.86
2022-10-18T07:46:33.132Z,13.70
2022-10-18T07:49:03.329Z,14.33
2022-10-18T07:51:33.190Z,14.58
2022-10-18T07:54:01.516Z,14.80
2022-10-18T07:56:30.246Z,14.98
2022-10-18T07:58:58.865Z,15.13
2022-10-18T08:01:27.706Z,15.23
2022-10-18T08:03:56.252Z,15.45
2022-10-18T08:06:26.483Z,15.58
2022-10-18T08:08:55.796Z,15.50
2022-10-18T08:11:26.111Z,16.17
2022-10-18T08:13:55.179Z,16.30
2022-10-18T08:16:26.316Z,16.41
2022-10-18T08:18:55.299Z,16.77
2022-10-18T08:21:25.647Z,16.87
2022-10-18T08:23:55.224Z,17.16
2022-10-18T08:26:24.483Z,17.54
2022-10-18T08:29:09.961Z,18.11
2022-10-18T08:31:41.863Z,20.00
2022-10-18T08:34:10.523Z,22.66
2022-10-18T08:36:40.496Z,24.85
2022-10-18T08:39:09.471Z,26.48
2022-10-18T08:42:03.008Z,27.51
2022-10-18T08:44:33.531Z,28.71
2022-10-18T08:47:06.263Z,28.92
2022-10-18T08:49:45.628Z,28.94
2022-10-18T08:52:22.902Z,27.46
2022-10-18T08:55:02.451Z,26.36
2022-10-18T08:57:32.790Z,24.86
2022-10-18T09:00:03.541Z,23.13
2022-10-18T09:02:41.188Z,22.72
2022-10-18T09:05:24.205Z,22.51
2022-10-18T09:08:13.325Z,21.93
2022-10-18T09:10:47.012Z,21.68
2022-10-18T09:13:28.177Z,20.69
2022-10-18T09:15:59.474Z,21.37
2022-10-18T09:18:39.356Z,21.95
2022-10-18T09:21:18.974Z,22.64
2022-10-18T09:23:51.271Z,24.01
2022-10-18T09:26:21.509Z,24.64
2022-10-18T09:29:02.826Z,25.62
2022-10-18T09:31:42.415Z,26.50
2022-10-18T09:34:13.360Z,26.19
2022-10-18T09:36:42.501Z,27.45
2022-10-18T09:39:14.000Z,26.80
2022-10-18T09:41:46.860Z,27.39
2022-10-18T09:44:19.065Z,27.90
2022-10-18T09:46:51.378Z,28.82
2022-10-18T09:49:24.480Z,28.89
2022-10-18T09:51:57.055Z,29.61
2022-10-18T09:54:31.950Z,28.69
2022-10-18T09:57:05.346Z,28.46
2022-10-18T09:59:40.354Z,29.55
2022-10-18T10:02:14.728Z,30.18
2022-10-18T10:04:44.605Z,30.51
2022-10-18T10:07:15.870Z,31.36
2022-10-18T10:09:48.555Z,30.34
2022-10-18T10:12:31.654Z,30.19
2022-10-18T10:15:11.657Z,30.13
2022-10-18T10:17:40.230Z,30.54
2022-10-18T10:20:17.348Z,30.48
2022-10-18T10:22:47.617Z,30.27
2022-10-18T10:25:27.654Z,31.01
2022-10-18T10:27:56.427Z,31.87
2022-10-18T10:30:28.479Z,30.88
2022-10-18T10:32:58.757Z,30.12
2022-10-18T10:35:52.531Z,30.66
2022-10-18T10:38:26.755Z,30.69
2022-10-18T10:40:57.577Z,30.32
2022-10-18T10:43:43.294Z,29.59
2022-10-18T10:46:13.478Z,30.16
2022-10-18T10:48:48.208Z,30.02
2022-10-18T10:51:18.447Z,29.27
2022-10-18T10:53:52.398Z,29.51
2022-10-18T10:56:28.643Z,30.25
2022-10-18T10:59:03.407Z,29.57
2022-10-18T11:01:34.442Z,29.70
2022-10-18T11:04:05.585Z,29.45
2022-10-18T11:06:49.370Z,29.62
2022-10-18T11:09:35.248Z,28.91
2022-10-18T11:12:13.574Z,28.48
2022-10-18T11:14:44.644Z,27.42
2022-10-18T11:17:22.284Z,26.45
2022-10-18T11:20:18.269Z,25.70
2022-10-18T11:22:58.846Z,24.79
2022-10-18T11:25:56.311Z,24.54
2022-10-18T11:28:34.758Z,24.33
2022-10-18T11:31:14.974Z,24.21
2022-10-18T11:34:08.693Z,24.63
2022-10-18T11:36:56.366Z,25.95
2022-10-18T11:39:38.641Z,26.45
2022-10-18T11:42:13.344Z,25.38
2022-10-18T11:44:50.593Z,24.57
2022-10-18T11:47:23.049Z,24.07
2022-10-18T11:50:00.692Z,23.85
2022-10-18T11:52:35.775Z,23.35
2022-10-18T11:55:18.323Z,22.59
2022-10-18T11:57:52.128Z,22.61
2022-10-18T12:00:30.385Z,22.62
2022-10-18T12:03:43.828Z,22.54
2022-10-18T12:06:16.557Z,23.02
2022-10-18T12:08:48.922Z,23.09
2022-10-18T12:11:21.048Z,23.19
2022-10-18T12:13:53.209Z,23.10
2022-10-18T12:16:49.493Z,22.97
2022-10-18T12:19:22.112Z,23.06
2022-10-18T12:21:55.205Z,22.54
2022-10-18T12:24:27.344Z,22.92
2022-10-18T12:27:00.228Z,22.70
2022-10-18T12:29:31.973Z,22.72
2022-10-18T12:32:07.259Z,22.86
2022-10-18T12:34:41.620Z,23.01
2022-10-18T12:37:22.964Z,22.81
2022-10-18T12:40:11.444Z,22.43
2022-10-18T12:42:47.456Z,22.38
2022-10-18T12:45:29.542Z,22.43
2022-10-18T12:48:04.128Z,22.46
2022-10-18T12:50:37.369Z,22.89
2022-10-18T12:53:14.444Z,22.91
2022-10-18T12:55:44.869Z,23.20
2022-10-18T12:58:31.719Z,23.37
2022-10-18T13:01:06.621Z,23.30
2022-10-18T13:03:53.894Z,23.28
2022-10-18T13:06:23.905Z,23.76
2022-10-18T13:09:20.473Z,24.75
2022-10-18T13:11:49.467Z,25.92
2022-10-18T13:14:44.045Z,26.09
2022-10-18T13:17:32.189Z,26.64
2022-10-18T13:20:25.475Z,27.21
2022-10-18T13:23:09.411Z,27.17
2022-10-18T13:25:49.054Z,27.53
2022-10-18T13:28:25.534Z,28.12
2022-10-18T13:30:56.937Z,27.94
2022-10-18T13:33:34.666Z,27.83
2022-10-18T13:36:06.697Z,28.81
2022-10-18T13:38:48.644Z,29.78
2022-10-18T13:41:20.213Z,29.88
2022-10-18T13:44:00.377Z,29.11
2022-10-18T13:47:02.010Z,28.96
2022-10-18T13:49:36.526Z,28.96
2022-10-18T13:52:12.695Z,29.00
2022-10-18T13:54:53.123Z,28.14
2022-10-18T13:57:32.192Z,28.02
2022-10-18T14:00:25.490Z,28.55
2022-10-18T14:03:56.126Z,27.65
2022-10-18T14:06:26.215Z,28.42
2022-10-18T14:09:09.431Z,29.13
2022-10-18T14:11:51.414Z,29.53
2022-10-18T14:14:30.495Z,28.84
2022-10-18T14:17:06.336Z,27.65
2022-10-18T14:19:38.308Z,26.61
2022-10-18T14:22:13.311Z,25.81
2022-10-18T14:24:46.708Z,24.91
2022-10-18T14:27:19.434Z,24.20
2022-10-18T14:29:49.059Z,23.66
2022-10-18T14:32:37.157Z,23.12
2022-10-18T14:35:31.002Z,22.89
2022-10-18T14:37:56.743Z,22.65
2022-10-18T14:40:36.225Z,22.22
2022-10-18T14:43:07.553Z,22.90
2022-10-18T14:45:36.983Z,22.84
2022-10-18T14:48:12.701Z,22.69
2022-10-18T14:50:42.111Z,23.19
2022-10-18T14:53:16.411Z,22.90
2022-10-18T14:55:54.368Z,22.30
2022-10-18T14:58:23.904Z,21.46
2022-10-18T15:00:52.086Z,21.15
2022-10-18T15:03:21.042Z,20.78
2022-10-18T15:06:00.097Z,20.38
2022-10-18T15:08:34.994Z,20.24
2022-10-18T15:11:09.331Z,19.98
2022-10-18T15:13:49.452Z,19.69
2022-10-18T15:16:18.951Z,19.58
2022-10-18T15:19:02.972Z,19.39
2022-10-18T15:21:31.738Z,19.35
2022-10-18T15:24:20.773Z,19.14
2022-10-18T15:26:51.605Z,19.00
2022-10-18T15:29:20.849Z,18.84
2022-10-18T15:31:51.112Z,18.84
2022-10-18T15:34:21.269Z,18.22
2022-10-18T15:36:50.833Z,18.77
2022-10-18T15:39:22.293Z,18.62
2022-10-18T15:41:54.841Z,18.53
2022-10-18T15:44:26.438Z,18.49
2022-10-18T15:46:56.748Z,18.55
2022-10-18T15:49:52.759Z,18.57
2022-10-18T15:52:39.024Z,18.45
2022-10-18T15:55:57.159Z,18.53
2022-10-18T15:58:28.505Z,18.41
2022-10-18T16:01:00.361Z,18.26
2022-10-18T16:03:29.543Z,18.10
2022-10-18T16:06:02.159Z,17.96
2022-10-18T16:08:33.822Z,17.66
2022-10-18T16:11:03.407Z,17.89
2022-10-18T16:13:34.339Z,17.80
2022-10-18T16:16:03.263Z,17.56
2022-10-18T16:18:31.735Z,17.51
2022-10-18T16:21:02.042Z,17.51
2022-10-18T16:23:30.295Z,17.44
2022-10-18T16:25:58.860Z,17.09
2022-10-18T16:28:27.822Z,17.10
2022-10-18T16:30:59.887Z,17.07
2022-10-18T16:33:29.379Z,17.01
2022-10-18T16:35:58.856Z,16.90
2022-10-18T16:38:34.012Z,16.59
2022-10-18T16:41:04.811Z,16.66
2022-10-18T16:43:34.800Z,16.11
2022-10-18T16:46:05.592Z,16.27
2022-10-18T16:48:34.739Z,16.46
2022-10-18T16:51:04.091Z,16.40
2022-10-18T16:53:32.907Z,16.23
2022-10-18T16:56:03.387Z,16.24
2022-10-18T16:58:34.855Z,15.99
2022-10-18T17:01:08.013Z,16.16
2022-10-18T17:03:39.543Z,16.08
2022-10-18T17:06:15.894Z,15.84
2022-10-18T17:08:47.169Z,15.84
2022-10-18T17:11:19.016Z,15.76
2022-10-18T17:13:48.331Z,15.56
2022-10-18T17:16:25.262Z,15.55
2022-10-18T17:18:54.172Z,15.51
2022-10-18T17:21:23.260Z,15.53
2022-10-18T17:23:52.669Z,15.49
2022-10-18T17:26:28.983Z,15.47
2022-10-18T17:29:00.666Z,15.36
2022-10-18T17:31:31.482Z,15.37
2022-10-18T17:34:02.032Z,15.20
2022-10-18T17:36:30.805Z,15.20
2022-10-18T17:38:59.632Z,15.17
2022-10-18T17:41:29.189Z,15.26
2022-10-18T17:43:58.608Z,14.94
2022-10-18T17:46:27.301Z,15.09
2022-10-18T17:48:57.799Z,15.16
2022-10-18T17:51:27.200Z,15.09
2022-10-18T17:53:56.798Z,15.10
2022-10-18T17:56:27.252Z,15.06
2022-10-18T17:58:56.604Z,14.86
2022-10-18T18:01:31.385Z,14.99
2022-10-18T18:04:04.109Z,14.99
2022-10-18T18:06:35.388Z,14.94
2022-10-18T18:09:07.819Z,14.79
2022-10-18T18:11:38.030Z,14.83
2022-10-18T18:14:09.348Z,14.84
2022-10-18T18:16:39.152Z,14.73
2022-10-18T18:19:10.291Z,14.73
2022-10-18T18:21:40.297Z,14.79
2022-10-18T18:24:10.756Z,14.80
2022-10-18T18:26:41.489Z,14.72
2022-10-18T18:29:11.788Z,14.63
2022-10-18T18:31:43.446Z,14.46
2022-10-18T18:34:14.616Z,14.70
2022-10-18T18:36:44.083Z,14.60
2022-10-18T18:39:23.178Z,14.51
2022-10-18T18:41:53.356Z,14.50
2022-10-18T18:44:23.686Z,14.47
2022-10-18T18:46:53.564Z,14.20
2022-10-18T18:49:24.364Z,14.35
2022-10-18T18:51:53.030Z,14.44
2022-10-18T18:54:22.273Z,14.42
2022-10-18T18:56:51.217Z,14.40
2022-10-18T18:59:20.599Z,14.41
2022-10-18T19:01:50.072Z,14.40
2022-10-18T19:04:19.073Z,14.44
2022-10-18T19:06:49.558Z,14.40
2022-10-18T19:09:22.357Z,14.41
2022-10-18T19:11:52.672Z,14.29
2022-10-18T19:16:51.984Z,14.28
2022-10-18T19:19:22.748Z,14.31
2022-10-18T19:21:54.402Z,14.32
2022-10-18T19:24:23.728Z,14.29
2022-10-18T19:26:53.757Z,14.25
2022-10-18T19:29:24.296Z,13.61
2022-10-18T19:31:54.511Z,13.83
2022-10-18T19:34:24.862Z,14.07
2022-10-18T19:36:54.776Z,14.01
2022-10-18T19:39:24.302Z,14.13
2022-10-18T19:41:55.499Z,13.96
2022-10-18T19:44:25.173Z,14.04
2022-10-18T19:46:53.762Z,13.94
2022-10-18T19:49:23.118Z,13.91
2022-10-18T19:51:51.454Z,14.01
2022-10-18T19:54:22.765Z,13.86
2022-10-18T19:56:51.604Z,13.95
2022-10-18T19:59:20.700Z,13.88
2022-10-18T20:01:50.098Z,13.89
2022-10-18T20:04:19.026Z,13.87
2022-10-18T20:06:48.150Z,13.69
2022-10-18T20:09:20.416Z,13.77
2022-10-18T20:11:51.232Z,13.81
2022-10-18T20:14:20.170Z,13.81
2022-10-18T20:16:48.810Z,13.85
2022-10-18T20:19:17.057Z,13.59
2022-10-18T20:21:45.242Z,13.64
2022-10-18T20:24:14.141Z,13.72
2022-10-18T20:26:43.878Z,13.54
2022-10-18T20:29:14.437Z,13.06
2022-10-18T20:31:43.226Z,13.67
2022-10-18T20:34:13.694Z,13.42
2022-10-18T20:36:43.016Z,13.57
2022-10-18T20:39:11.586Z,13.51
2022-10-18T20:41:42.074Z,13.54
2022-10-18T20:44:16.219Z,13.59
2022-10-18T20:46:45.566Z,13.52
2022-10-18T20:49:15.890Z,13.38
2022-10-18T20:51:44.556Z,13.37
2022-10-18T20:54:14.006Z,13.22
2022-10-18T20:56:43.137Z,13.31
2022-10-18T20:59:15.058Z,13.16
2022-10-18T21:01:44.631Z,13.17
2022-10-18T21:04:14.180Z,13.19
2022-10-18T21:06:44.009Z,13.18
2022-10-18T21:09:13.982Z,13.20
2022-10-18T21:11:45.096Z,13.10
2022-10-18T21:14:17.038Z,13.06
2022-10-18T21:16:46.802Z,13.12
2022-10-18T21:19:16.933Z,12.90
2022-10-18T21:21:47.521Z,12.89
2022-10-18T21:24:16.919Z,12.97
2022-10-18T21:26:46.323Z,12.65
2022-10-18T21:29:21.641Z,12.92
2022-10-18T21:31:50.603Z,12.88
2022-10-18T21:34:19.329Z,12.94
2022-10-18T21:36:49.238Z,13.06
2022-10-18T21:39:18.691Z,13.05
2022-10-18T21:41:48.045Z,13.17
2022-10-18T21:44:18.805Z,13.20
2022-10-18T21:46:48.279Z,13.17
2022-10-18T21:49:17.536Z,13.18
2022-10-18T21:51:46.293Z,13.13
2022-10-18T21:54:17.365Z,13.14
2022-10-18T21:56:46.213Z,13.24
2022-10-18T21:59:16.068Z,13.24
2022-10-18T22:01:46.300Z,13.27
2022-10-18T22:04:20.256Z,13.15
2022-10-18T22:06:48.574Z,13.28
2022-10-18T22:09:17.513Z,13.26
2022-10-18T22:11:49.030Z,13.30
2022-10-18T22:14:17.285Z,13.21
2022-10-18T22:18:36.864Z,13.38
2022-10-18T22:21:07.966Z,12.82
2022-10-18T22:23:38.791Z,13.49
2022-10-18T22:26:08.842Z,13.52
2022-10-18T22:28:38.265Z,13.55
2022-10-18T22:31:07.673Z,13.59
2022-10-18T22:33:37.959Z,13.55
2022-10-18T22:36:07.040Z,13.29
2022-10-18T22:38:36.570Z,13.35
2022-10-18T22:41:06.503Z,13.46
2022-10-18T22:43:35.315Z,13.38
2022-10-18T22:46:04.083Z,13.53
2022-10-18T22:48:33.375Z,13.47
2022-10-18T22:51:04.228Z,13.08
2022-10-18T22:53:33.077Z,13.33
2022-10-18T22:56:03.090Z,13.67
2022-10-18T22:58:31.698Z,13.67
2022-10-18T23:01:05.409Z,13.16
2022-10-18T23:03:34.060Z,13.83
2022-10-18T23:06:04.402Z,13.84
2022-10-18T23:08:33.739Z,13.65
2022-10-18T23:11:02.399Z,13.79
2022-10-18T23:13:30.940Z,13.97
2022-10-18T23:16:04.650Z,14.08
2022-10-18T23:18:34.492Z,14.02
2022-10-18T23:21:06.136Z,13.74
2022-10-18T23:23:37.024Z,14.20
2022-10-18T23:26:06.816Z,14.22
2022-10-18T23:28:36.585Z,13.76
2022-10-18T23:31:13.351Z,14.15
2022-10-18T23:33:42.683Z,14.36
2022-10-18T23:36:13.272Z,13.78
2022-10-18T23:38:42.456Z,14.37
2022-10-18T23:41:12.654Z,14.31
2022-10-18T23:43:41.691Z,14.39
2022-10-18T23:46:11.006Z,14.25
2022-10-18T23:48:39.840Z,14.18
2022-10-18T23:51:08.524Z,14.26
2022-10-18T23:53:38.833Z,14.25
2022-10-18T23:56:09.884Z,14.16
2022-10-18T23:58:38.825Z,14.20
